ESGJ/JKG METAR and TAF weather

Enter ICAO airport designator
Station Type Date Time Source
ESGJ METAR 2020/07/14 06:50 UTC NOAA

ESGJ 140650Z AUTO 19007KT 9999 FEW013/// SCT210/// 14/11 Q1014


Station Type Date Time Source
ESGJ Decoded METAR 2020/07/14 06:50 UTC NOAA

Jonkoping Flygplats, Sweden (ESGJ) 57-46N 014-05E 232M
Jul 14, 2020 - 02:50 AM EDT / 2020.07.14 0650 UTC
Wind: from the S (190 degrees) at 8 MPH (7 KT):0
Visibility: greater than 7 mile(s):0
Sky conditions: partly cloudy
Temperature: 57 F (14 C)
Dew Point: 51 F (11 C)
Relative Humidity: 82%
Pressure (altimeter): 29.94 in. Hg (1014 hPa)
ob: ESGJ 140650Z AUTO 19007KT 9999 FEW013/// SCT210/// 14/11 Q1014
cycle: 7

Station Type Date Time Source
ESGJ TAF 2015/05/01 23:06 UTC NOAA

TAF TAF ESGJ 302359Z 3023/0101 CNL

Example: see airport list